Terminal Aerodrome Forecast
Issued by NWS

Home | Current Version | Previous Version | Graphics & Text | Print | Product List | Glossary On
Versions: 1 2 3 4 5 6 7 8 9 10 11 12 13 14 15 16 17 18 19 20 21 22 23 24 25 26 27
000
FTUS43 KLOT 220858 AAA
TAFDPA
TAF AMD
KDPA 220858Z 2209/2306 21010KT P6SM FEW100 BKN250
     FM221400 22015G24KT P6SM SCT040 BKN200
     FM230100 21012KT P6SM SCT020 BKN050=

USA.gov is the U.S. government's official web portal to all federal, state and local government web resources and services.